createdAt,value
2022-08-02T00:00:22.790Z,1019.21
2022-08-02T00:01:25.777Z,1019.20
2022-08-02T00:02:28.803Z,1019.20
2022-08-02T00:04:04.089Z,1019.16
2022-08-02T00:05:06.932Z,1019.20
2022-08-02T00:06:09.890Z,1019.16
2022-08-02T00:07:51.740Z,1019.17
2022-08-02T00:08:54.560Z,1019.17
2022-08-02T00:09:57.359Z,1019.09
2022-08-02T00:11:32.196Z,1019.09
2022-08-02T00:12:34.841Z,1019.01
2022-08-02T00:13:39.298Z,1018.99
2022-08-02T00:15:15.802Z,1018.99
2022-08-02T00:16:24.028Z,1018.97
2022-08-02T00:17:41.203Z,1019.00
2022-08-02T00:19:17.654Z,1019.00
2022-08-02T00:20:20.473Z,1019.01
2022-08-02T00:21:24.654Z,1018.98
2022-08-02T00:22:59.831Z,1018.95
2022-08-02T00:24:41.465Z,1019.00
2022-08-02T00:26:01.481Z,1018.98
2022-08-02T00:27:36.438Z,1019.02
2022-08-02T00:28:39.675Z,1018.99
2022-08-02T00:29:57.823Z,1018.97
2022-08-02T00:31:32.312Z,1018.97
2022-08-02T00:32:35.096Z,1018.95
2022-08-02T00:34:43.782Z,1018.95
2022-08-02T00:36:18.508Z,1018.95
2022-08-02T00:37:21.446Z,1018.95
2022-08-02T00:38:24.114Z,1018.93
2022-08-02T00:40:26.062Z,1018.95
2022-08-02T00:41:29.007Z,1018.91
2022-08-02T00:42:31.731Z,1018.91
2022-08-02T00:44:06.435Z,1018.92
2022-08-02T00:45:10.076Z,1018.90
2022-08-02T00:46:53.889Z,1018.88
2022-08-02T00:48:31.185Z,1018.91
2022-08-02T00:49:44.416Z,1018.94
2022-08-02T00:50:47.054Z,1018.91
2022-08-02T00:52:22.047Z,1018.92
2022-08-02T00:53:24.955Z,1018.94
2022-08-02T00:54:27.896Z,1018.93
2022-08-02T00:56:10.116Z,1018.96
2022-08-02T00:57:13.705Z,1018.96
2022-08-02T00:58:16.479Z,1019.03
2022-08-02T00:59:50.852Z,1019.06
2022-08-02T01:00:23.870Z,1019.07
2022-08-02T01:01:33.213Z,1019.05
2022-08-02T01:02:54.534Z,1019.03
2022-08-02T01:04:41.982Z,1019.03
2022-08-02T01:06:21.506Z,1019.02
2022-08-02T01:07:25.223Z,1019.01
2022-08-02T01:09:00.196Z,1019.02
2022-08-02T01:10:02.991Z,1019.01
2022-08-02T01:11:05.677Z,1019.02
2022-08-02T01:12:40.177Z,1018.99
2022-08-02T01:13:43.025Z,1019.05
2022-08-02T01:14:45.728Z,1019.03
2022-08-02T01:16:33.446Z,1019.00
2022-08-02T01:17:38.358Z,1018.99
2022-08-02T01:18:41.275Z,1018.96
2022-08-02T01:20:15.895Z,1019.00
2022-08-02T01:21:18.679Z,1018.97
2022-08-02T01:22:30.503Z,1018.97
2022-08-02T01:24:30.296Z,1018.98
2022-08-02T01:25:33.209Z,1018.99
2022-08-02T01:26:35.990Z,1018.96
2022-08-02T01:28:13.175Z,1018.92
2022-08-02T01:29:15.861Z,1018.91
2022-08-02T01:30:18.611Z,1018.88
2022-08-02T01:31:53.198Z,1018.91
2022-08-02T01:32:56.689Z,1018.91
2022-08-02T01:33:59.309Z,1018.88
2022-08-02T01:35:50.464Z,1018.85
2022-08-02T01:36:53.952Z,1018.84
2022-08-02T01:37:56.656Z,1018.82
2022-08-02T01:39:38.930Z,1018.84
2022-08-02T01:40:41.682Z,1018.83
2022-08-02T01:41:44.274Z,1018.82
2022-08-02T01:43:26.808Z,1018.84
2022-08-02T01:44:38.383Z,1018.83
2022-08-02T01:45:41.592Z,1018.80
2022-08-02T01:47:16.262Z,1018.80
2022-08-02T01:48:18.908Z,1018.78
2022-08-02T01:49:22.112Z,1018.79
2022-08-02T01:50:57.281Z,1018.77
2022-08-02T01:51:59.932Z,1018.72
2022-08-02T01:53:05.090Z,1018.69
2022-08-02T01:54:39.502Z,1018.69
2022-08-02T01:56:08.413Z,1018.67
2022-08-02T01:57:11.017Z,1018.65
2022-08-02T01:58:45.606Z,1018.64
2022-08-02T01:59:49.304Z,1018.67
2022-08-02T02:00:23.546Z,1018.69
2022-08-02T02:01:30.338Z,1018.67
2022-08-02T02:02:37.410Z,1018.69
2022-08-02T02:04:15.274Z,1018.66
2022-08-02T02:05:18.017Z,1018.63
2022-08-02T02:06:20.939Z,1018.67
2022-08-02T02:07:55.666Z,1018.64
2022-08-02T02:08:58.587Z,1018.64
2022-08-02T02:10:02.362Z,1018.63
2022-08-02T02:12:26.714Z,1018.61
2022-08-02T02:13:39.292Z,1018.59
2022-08-02T02:14:42.369Z,1018.57
2022-08-02T02:16:27.609Z,1018.57
2022-08-02T02:18:24.879Z,1018.58
2022-08-02T02:19:33.846Z,1018.51
2022-08-02T02:21:08.335Z,1018.48
2022-08-02T02:22:13.196Z,1018.50
2022-08-02T02:23:19.204Z,1018.46
2022-08-02T02:25:12.108Z,1018.46
2022-08-02T02:26:50.712Z,1018.51
2022-08-02T02:27:55.620Z,1018.53
2022-08-02T02:29:30.156Z,1018.54
2022-08-02T02:30:32.901Z,1018.54
2022-08-02T02:31:35.935Z,1018.53
2022-08-02T02:33:10.923Z,1018.56
2022-08-02T02:34:19.231Z,1018.54
2022-08-02T02:35:21.871Z,1018.58
2022-08-02T02:36:57.123Z,1018.56
2022-08-02T02:37:59.756Z,1018.48
2022-08-02T02:39:02.484Z,1018.44
2022-08-02T02:40:42.489Z,1018.36
2022-08-02T02:41:45.351Z,1018.36
2022-08-02T02:42:55.177Z,1018.29
2022-08-02T02:44:29.816Z,1018.26
2022-08-02T02:45:32.434Z,1018.27
2022-08-02T02:46:35.317Z,1018.23
2022-08-02T02:48:27.386Z,1018.18
2022-08-02T02:49:30.745Z,1018.16
2022-08-02T02:50:33.704Z,1018.11
2022-08-02T02:52:11.842Z,1018.08
2022-08-02T02:53:15.140Z,1018.10
2022-08-02T02:55:19.956Z,1018.10
2022-08-02T02:56:59.855Z,1018.16
2022-08-02T02:58:02.707Z,1018.17
2022-08-02T02:59:14.626Z,1018.17
2022-08-02T03:00:22.601Z,1018.20
2022-08-02T03:01:57.177Z,1018.18
2022-08-02T03:03:01.547Z,1018.10
2022-08-02T03:05:07.745Z,1018.13
2022-08-02T03:06:20.980Z,1018.10
2022-08-02T03:07:23.872Z,1018.15
2022-08-02T03:08:59.314Z,1018.15
2022-08-02T03:10:05.995Z,1018.15
2022-08-02T03:11:10.961Z,1018.13
2022-08-02T03:12:45.500Z,1018.12
2022-08-02T03:13:48.872Z,1018.13
2022-08-02T03:14:55.061Z,1018.17
2022-08-02T03:16:29.771Z,1018.17
2022-08-02T03:17:32.627Z,1018.16
2022-08-02T03:18:35.598Z,1018.17
2022-08-02T03:20:19.493Z,1018.15
2022-08-02T03:21:22.447Z,1018.14
2022-08-02T03:22:31.778Z,1018.09
2022-08-02T03:24:06.524Z,1018.10
2022-08-02T03:25:19.905Z,1018.07
2022-08-02T03:26:22.661Z,1018.09
2022-08-02T03:27:57.187Z,1018.06
2022-08-02T03:28:59.746Z,1018.05
2022-08-02T03:30:07.946Z,1018.05
2022-08-02T03:31:44.033Z,1018.06
2022-08-02T03:32:47.063Z,1018.06
2022-08-02T03:33:50.021Z,1018.08
2022-08-02T03:35:30.035Z,1018.08
2022-08-02T03:36:32.860Z,1018.09
2022-08-02T03:37:35.587Z,1018.09
2022-08-02T03:39:15.087Z,1018.07
2022-08-02T03:40:17.890Z,1018.05
2022-08-02T03:41:20.927Z,1018.03
2022-08-02T03:43:01.460Z,1018.02
2022-08-02T03:44:04.200Z,1018.02
2022-08-02T03:45:13.846Z,1018.04
2022-08-02T03:46:48.739Z,1018.07
2022-08-02T03:47:51.428Z,1018.06
2022-08-02T03:49:27.054Z,1018.04
2022-08-02T03:51:03.442Z,1017.99
2022-08-02T03:52:06.289Z,1017.99
2022-08-02T03:53:09.662Z,1017.97
2022-08-02T03:54:56.753Z,1017.96
2022-08-02T03:56:01.639Z,1017.98
2022-08-02T03:57:04.482Z,1017.99
2022-08-02T03:58:48.496Z,1017.96
2022-08-02T03:59:51.983Z,1017.95
2022-08-02T04:00:23.614Z,1017.95
2022-08-02T04:01:26.969Z,1017.90
2022-08-02T04:02:29.787Z,1017.92
2022-08-02T04:04:12.017Z,1017.92
2022-08-02T04:06:15.826Z,1017.92
2022-08-02T04:08:47.911Z,1018.00
2022-08-02T04:09:51.051Z,1018.05
2022-08-02T04:11:25.809Z,1017.97
2022-08-02T04:12:28.675Z,1017.92
2022-08-02T04:13:41.362Z,1017.88
2022-08-02T04:15:22.821Z,1017.82
2022-08-02T04:16:25.661Z,1017.80
2022-08-02T04:17:28.463Z,1017.78
2022-08-02T04:19:03.289Z,1017.81
2022-08-02T04:20:07.105Z,1017.85
2022-08-02T04:21:10.529Z,1017.86
2022-08-02T04:23:08.649Z,1017.92
2022-08-02T04:24:18.728Z,1017.86
2022-08-02T04:25:40.853Z,1017.89
2022-08-02T04:28:27.561Z,1017.92
2022-08-02T04:29:30.944Z,1018.00
2022-08-02T04:30:38.525Z,1018.07
2022-08-02T04:32:13.737Z,1018.10
2022-08-02T04:33:17.075Z,1018.07
2022-08-02T04:34:21.253Z,1018.11
2022-08-02T04:36:31.074Z,1018.06
2022-08-02T04:37:35.314Z,1018.13
2022-08-02T04:39:07.745Z,1018.13
2022-08-02T04:40:44.389Z,1018.14
2022-08-02T04:41:57.186Z,1018.12
2022-08-02T04:43:00.878Z,1018.13
2022-08-02T04:44:35.510Z,1018.19
2022-08-02T04:45:38.373Z,1018.17
2022-08-02T04:46:41.270Z,1018.15
2022-08-02T04:49:00.929Z,1018.16
2022-08-02T04:50:04.718Z,1018.17
2022-08-02T04:51:07.534Z,1018.17
2022-08-02T04:52:57.275Z,1018.12
2022-08-02T04:54:11.756Z,1018.11
2022-08-02T04:55:14.469Z,1018.09
2022-08-02T04:56:50.479Z,1018.07
2022-08-02T04:58:23.818Z,1018.07
2022-08-02T04:59:40.079Z,1018.02
2022-08-02T05:00:26.554Z,1018.00
2022-08-02T05:01:29.907Z,1017.99
2022-08-02T05:02:32.787Z,1017.99
2022-08-02T05:04:07.517Z,1017.98
2022-08-02T05:05:15.897Z,1017.95
2022-08-02T05:06:30.764Z,1017.91
2022-08-02T05:08:05.718Z,1017.92
2022-08-02T05:09:08.629Z,1017.92
2022-08-02T05:10:13.561Z,1017.92
2022-08-02T05:12:00.550Z,1017.92
2022-08-02T05:13:04.043Z,1017.84
2022-08-02T05:14:10.535Z,1017.80
2022-08-02T05:15:45.258Z,1017.76
2022-08-02T05:16:48.393Z,1017.74
2022-08-02T05:17:58.924Z,1017.77
2022-08-02T05:19:34.722Z,1017.78
2022-08-02T05:20:39.634Z,1017.83
2022-08-02T05:21:49.495Z,1017.85
2022-08-02T05:23:24.194Z,1017.87
2022-08-02T05:24:27.237Z,1017.89
2022-08-02T05:25:31.397Z,1017.88
2022-08-02T05:27:22.250Z,1017.91
2022-08-02T05:28:25.144Z,1017.95
2022-08-02T05:29:29.066Z,1017.96
2022-08-02T05:31:24.237Z,1017.99
2022-08-02T05:32:31.429Z,1017.91
2022-08-02T05:33:34.444Z,1017.93
2022-08-02T05:35:09.540Z,1017.90
2022-08-02T05:36:12.371Z,1017.89
2022-08-02T05:37:21.141Z,1017.92
2022-08-02T05:39:24.806Z,1017.90
2022-08-02T05:41:06.446Z,1017.91
2022-08-02T05:42:09.533Z,1017.88
2022-08-02T05:43:44.461Z,1017.87
2022-08-02T05:44:47.242Z,1017.88
2022-08-02T05:45:49.893Z,1017.87
2022-08-02T05:47:24.810Z,1017.86
2022-08-02T05:48:31.167Z,1017.84
2022-08-02T05:49:35.140Z,1017.84
2022-08-02T05:51:10.679Z,1017.87
2022-08-02T05:52:13.973Z,1017.85
2022-08-02T05:53:17.103Z,1017.85
2022-08-02T05:54:54.348Z,1017.88
2022-08-02T05:55:57.048Z,1017.89
2022-08-02T05:57:09.951Z,1017.87
2022-08-02T05:58:44.420Z,1017.86
2022-08-02T05:59:47.236Z,1017.83
2022-08-02T06:00:23.767Z,1017.82
2022-08-02T06:01:26.690Z,1017.81
2022-08-02T06:02:36.257Z,1017.82
2022-08-02T06:04:10.849Z,1017.79
2022-08-02T06:05:13.770Z,1017.77
2022-08-02T06:06:16.487Z,1017.74
2022-08-02T06:07:51.615Z,1017.75
2022-08-02T06:08:59.368Z,1017.80
2022-08-02T06:10:02.299Z,1017.82
2022-08-02T06:11:36.835Z,1017.84
2022-08-02T06:12:59.719Z,1017.86
2022-08-02T06:14:06.569Z,1017.88
2022-08-02T06:16:04.944Z,1017.81
2022-08-02T06:17:28.573Z,1017.80
2022-08-02T06:18:40.175Z,1017.80
2022-08-02T06:20:14.695Z,1017.81
2022-08-02T06:22:45.993Z,1017.80
2022-08-02T06:24:04.746Z,1017.79
2022-08-02T06:26:02.616Z,1017.82
2022-08-02T06:27:05.691Z,1017.76
2022-08-02T06:28:11.529Z,1017.70
2022-08-02T06:29:50.388Z,1017.71
2022-08-02T06:30:53.037Z,1017.72
2022-08-02T06:31:56.703Z,1017.73
2022-08-02T06:33:32.390Z,1017.78
2022-08-02T06:34:35.358Z,1017.77
2022-08-02T06:35:38.207Z,1017.68
2022-08-02T06:37:15.440Z,1017.69
2022-08-02T06:38:19.637Z,1017.64
2022-08-02T06:39:22.398Z,1017.64
2022-08-02T06:40:57.027Z,1017.64
2022-08-02T06:42:01.096Z,1017.69
2022-08-02T06:43:13.575Z,1017.61
2022-08-02T06:45:28.275Z,1017.58
2022-08-02T06:47:23.807Z,1017.56
2022-08-02T06:48:26.794Z,1017.50
2022-08-02T06:50:06.317Z,1017.55
2022-08-02T06:51:09.282Z,1017.54
2022-08-02T06:52:12.431Z,1017.54
2022-08-02T06:53:52.530Z,1017.51
2022-08-02T06:54:55.336Z,1017.52
2022-08-02T06:55:58.343Z,1017.50
2022-08-02T06:57:36.607Z,1017.51
2022-08-02T06:58:40.050Z,1017.46
2022-08-02T06:59:43.186Z,1017.45
2022-08-02T07:00:23.427Z,1017.45
2022-08-02T07:01:26.435Z,1017.38
2022-08-02T07:02:41.932Z,1017.40
2022-08-02T07:04:19.930Z,1017.38
2022-08-02T07:05:23.121Z,1017.40
2022-08-02T07:06:26.168Z,1017.40
2022-08-02T07:08:00.706Z,1017.39
2022-08-02T07:09:31.507Z,1017.37
2022-08-02T07:10:53.285Z,1017.37
2022-08-02T07:12:28.866Z,1017.39
2022-08-02T07:13:31.686Z,1017.41
2022-08-02T07:14:37.786Z,1017.42
2022-08-02T07:16:12.449Z,1017.39
2022-08-02T07:17:15.297Z,1017.35
2022-08-02T07:18:19.674Z,1017.31
2022-08-02T07:19:54.272Z,1017.33
2022-08-02T07:20:57.755Z,1017.30
2022-08-02T07:22:11.187Z,1017.33
2022-08-02T07:23:46.499Z,1017.26
2022-08-02T07:24:49.456Z,1017.24
2022-08-02T07:26:15.507Z,1017.21
2022-08-02T07:28:11.972Z,1017.10
2022-08-02T07:29:22.134Z,1017.10
2022-08-02T07:30:38.907Z,1017.08
2022-08-02T07:32:13.967Z,1017.03
2022-08-02T07:33:47.051Z,1017.03
2022-08-02T07:34:58.405Z,1016.95
2022-08-02T07:36:53.684Z,1017.00
2022-08-02T07:38:23.873Z,1017.01
2022-08-02T07:39:35.972Z,1017.01
2022-08-02T07:41:17.989Z,1016.98
2022-08-02T07:42:21.554Z,1017.02
2022-08-02T07:43:24.271Z,1016.95
2022-08-02T07:45:00.574Z,1016.91
2022-08-02T07:46:12.116Z,1016.93
2022-08-02T07:47:16.142Z,1016.92
2022-08-02T07:48:50.842Z,1016.94
2022-08-02T07:49:53.870Z,1016.92
2022-08-02T07:50:56.944Z,1016.89
2022-08-02T07:52:37.013Z,1016.86
2022-08-02T07:54:09.819Z,1016.84
2022-08-02T07:55:14.445Z,1016.88
2022-08-02T07:57:10.361Z,1016.86
2022-08-02T07:58:18.545Z,1016.87
2022-08-02T07:59:21.797Z,1016.85
2022-08-02T08:00:23.482Z,1016.86
2022-08-02T08:01:26.796Z,1016.88
2022-08-02T08:02:36.820Z,1016.87
2022-08-02T08:04:16.853Z,1016.85
2022-08-02T08:05:19.824Z,1016.87
2022-08-02T08:06:28.493Z,1016.81
2022-08-02T08:08:04.001Z,1016.83
2022-08-02T08:09:14.602Z,1016.81
2022-08-02T08:10:17.279Z,1016.81
2022-08-02T08:11:53.308Z,1016.83
2022-08-02T08:12:56.669Z,1016.79
2022-08-02T08:13:59.548Z,1016.75
2022-08-02T08:15:40.304Z,1016.77
2022-08-02T08:16:49.770Z,1016.70
2022-08-02T08:17:52.534Z,1016.68
2022-08-02T08:19:57.840Z,1016.62
2022-08-02T08:21:10.013Z,1016.61
2022-08-02T08:22:13.429Z,1016.58
2022-08-02T08:23:49.844Z,1016.58
2022-08-02T08:24:52.574Z,1016.54
2022-08-02T08:25:56.726Z,1016.56
2022-08-02T08:27:34.023Z,1016.53
2022-08-02T08:28:36.870Z,1016.53
2022-08-02T08:29:39.865Z,1016.58
2022-08-02T08:31:14.440Z,1016.50
2022-08-02T08:32:24.301Z,1016.55
2022-08-02T08:33:29.329Z,1016.54
2022-08-02T08:35:04.257Z,1016.54
2022-08-02T08:36:08.182Z,1016.53
2022-08-02T08:37:17.327Z,1016.51
2022-08-02T08:38:59.188Z,1016.49
2022-08-02T08:40:09.821Z,1016.45
2022-08-02T08:41:19.537Z,1016.40
2022-08-02T08:43:00.505Z,1016.43
2022-08-02T08:44:04.907Z,1016.48
2022-08-02T08:45:09.392Z,1016.46
2022-08-02T08:46:53.918Z,1016.50
2022-08-02T08:48:02.928Z,1016.53
2022-08-02T08:49:18.099Z,1016.49
2022-08-02T08:50:53.267Z,1016.45
2022-08-02T08:51:56.303Z,1016.41
2022-08-02T08:53:03.586Z,1016.39
2022-08-02T08:54:55.654Z,1016.35
2022-08-02T08:56:02.779Z,1016.45
2022-08-02T08:57:11.258Z,1016.43
2022-08-02T08:58:48.916Z,1016.37
2022-08-02T08:59:51.884Z,1016.32
2022-08-02T09:00:23.786Z,1016.32
2022-08-02T09:01:26.870Z,1016.37
2022-08-02T09:03:14.549Z,1016.29
2022-08-02T09:05:01.163Z,1016.29
2022-08-02T09:06:05.029Z,1016.29
2022-08-02T09:07:08.060Z,1016.32
2022-08-02T09:08:44.834Z,1016.29
2022-08-02T09:09:47.723Z,1016.29
2022-08-02T09:10:50.476Z,1016.37
2022-08-02T09:12:25.677Z,1016.38
2022-08-02T09:13:57.128Z,1016.30
2022-08-02T09:15:01.873Z,1016.35
2022-08-02T09:16:39.615Z,1016.35
2022-08-02T09:17:42.536Z,1016.38
2022-08-02T09:18:49.221Z,1016.30
2022-08-02T09:20:36.463Z,1016.27
2022-08-02T09:21:43.181Z,1016.28
2022-08-02T09:22:46.225Z,1016.28
2022-08-02T09:24:21.006Z,1016.27
2022-08-02T09:25:29.101Z,1016.25
2022-08-02T09:26:54.065Z,1016.21
2022-08-02T09:28:28.952Z,1016.20
2022-08-02T09:29:32.790Z,1016.19
2022-08-02T09:31:10.140Z,1016.24
2022-08-02T09:32:47.351Z,1016.17
2022-08-02T09:33:57.358Z,1016.21
2022-08-02T09:35:06.289Z,1016.12
2022-08-02T09:37:06.660Z,1016.21
2022-08-02T09:38:09.521Z,1016.24
2022-08-02T09:39:12.476Z,1016.16
2022-08-02T09:40:54.184Z,1016.20
2022-08-02T09:41:58.001Z,1016.16
2022-08-02T09:43:02.122Z,1016.18
2022-08-02T09:45:07.609Z,1016.10
2022-08-02T09:46:13.259Z,1016.13
2022-08-02T09:47:21.700Z,1016.18
2022-08-02T09:49:04.450Z,1016.12
2022-08-02T09:50:14.623Z,1016.14
2022-08-02T09:51:19.721Z,1016.15
2022-08-02T09:52:55.442Z,1016.07
2022-08-02T09:54:13.786Z,1016.16
2022-08-02T09:55:16.816Z,1016.17
2022-08-02T09:57:20.398Z,1016.16
2022-08-02T09:58:23.216Z,1016.21
2022-08-02T09:59:26.031Z,1016.20
2022-08-02T10:00:57.730Z,1016.22
2022-08-02T10:02:29.451Z,1016.21
2022-08-02T10:03:46.805Z,1016.18
2022-08-02T10:06:08.173Z,1016.18
2022-08-02T10:07:11.306Z,1016.17
2022-08-02T10:08:14.573Z,1016.14
2022-08-02T10:09:58.884Z,1016.16
2022-08-02T10:11:01.858Z,1016.10
2022-08-02T10:12:04.966Z,1016.05
2022-08-02T10:13:40.500Z,1016.03
2022-08-02T10:14:43.562Z,1016.08
2022-08-02T10:15:56.294Z,1016.08
2022-08-02T10:17:30.826Z,1016.08
2022-08-02T10:18:50.324Z,1016.07
2022-08-02T10:20:15.414Z,1016.08
2022-08-02T10:21:56.260Z,1016.04
2022-08-02T10:22:59.853Z,1016.07
2022-08-02T10:24:02.741Z,1016.08
2022-08-02T10:25:45.791Z,1016.17
2022-08-02T10:26:51.837Z,1016.17
2022-08-02T10:28:22.005Z,1016.11
2022-08-02T10:30:07.013Z,1016.15
2022-08-02T10:31:10.568Z,1016.11
2022-08-02T10:32:13.979Z,1016.10
2022-08-02T10:33:55.942Z,1016.06
2022-08-02T10:35:19.820Z,1016.08
2022-08-02T10:36:29.349Z,1015.98
2022-08-02T10:38:07.025Z,1016.02
2022-08-02T10:39:09.917Z,1016.01
2022-08-02T10:40:12.820Z,1016.03
2022-08-02T10:41:47.770Z,1016.02
2022-08-02T10:42:51.646Z,1016.04
2022-08-02T10:43:54.595Z,1016.04
2022-08-02T10:45:47.846Z,1016.01
2022-08-02T10:46:53.771Z,1016.09
2022-08-02T10:48:04.621Z,1016.14
2022-08-02T10:49:51.803Z,1016.04
2022-08-02T10:50:54.867Z,1016.10
2022-08-02T10:51:57.988Z,1016.08
2022-08-02T10:53:37.818Z,1016.04
2022-08-02T10:54:40.666Z,1016.07
2022-08-02T10:55:48.401Z,1016.10
2022-08-02T10:57:26.759Z,1016.10
2022-08-02T10:58:37.765Z,1016.10
2022-08-02T10:59:41.975Z,1016.07
2022-08-02T11:00:28.556Z,1016.06
2022-08-02T11:01:38.856Z,1016.08
2022-08-02T11:02:46.935Z,1016.09
2022-08-02T11:04:26.105Z,1016.05
2022-08-02T11:05:29.045Z,1016.02
2022-08-02T11:06:46.529Z,1016.01
2022-08-02T11:08:21.786Z,1016.02
2022-08-02T11:09:29.526Z,1016.05
2022-08-02T11:10:35.305Z,1016.00
2022-08-02T11:12:40.518Z,1016.00
2022-08-02T11:13:43.503Z,1015.98
2022-08-02T11:14:46.367Z,1016.01
2022-08-02T11:16:26.254Z,1016.02
2022-08-02T11:17:38.033Z,1016.00
2022-08-02T11:18:43.993Z,1016.04
2022-08-02T11:20:19.483Z,1016.01
2022-08-02T11:21:23.065Z,1016.06
2022-08-02T11:22:31.794Z,1016.06
2022-08-02T11:24:31.394Z,1016.07
2022-08-02T11:26:11.206Z,1016.12
2022-08-02T11:27:14.499Z,1016.12
2022-08-02T11:28:51.519Z,1016.11
2022-08-02T11:30:02.167Z,1016.09
2022-08-02T11:31:04.909Z,1016.10
2022-08-02T11:32:42.736Z,1016.11
2022-08-02T11:33:45.641Z,1016.09
2022-08-02T11:34:55.224Z,1016.07
2022-08-02T11:36:29.986Z,1016.05
2022-08-02T11:37:32.970Z,1016.06
2022-08-02T11:38:35.712Z,1016.08
2022-08-02T11:40:32.517Z,1016.05
2022-08-02T11:42:02.095Z,1016.01
2022-08-02T11:43:05.240Z,1016.03
2022-08-02T11:44:40.042Z,1016.01
2022-08-02T11:45:47.277Z,1016.02
2022-08-02T11:46:50.073Z,1015.98
2022-08-02T11:48:25.118Z,1015.99
2022-08-02T11:49:30.500Z,1016.03
2022-08-02T11:50:41.684Z,1015.95
2022-08-02T11:52:17.727Z,1015.97
2022-08-02T11:53:20.557Z,1015.97
2022-08-02T11:54:23.309Z,1015.95
2022-08-02T11:55:59.207Z,1016.04
2022-08-02T11:57:14.410Z,1016.06
2022-08-02T11:58:55.703Z,1016.02
2022-08-02T12:00:23.581Z,1016.09
2022-08-02T12:01:36.172Z,1016.10
2022-08-02T12:02:48.101Z,1016.07
2022-08-02T12:04:23.770Z,1016.01
2022-08-02T12:06:16.796Z,1016.03
2022-08-02T12:07:30.399Z,1015.96
2022-08-02T12:09:29.883Z,1015.92
2022-08-02T12:10:38.356Z,1015.89
2022-08-02T12:11:50.679Z,1015.88
2022-08-02T12:13:25.435Z,1015.94
2022-08-02T12:14:28.115Z,1015.97
2022-08-02T12:15:31.279Z,1015.95
2022-08-02T12:17:06.058Z,1015.99
2022-08-02T12:18:09.040Z,1015.96
2022-08-02T12:19:11.794Z,1015.92
2022-08-02T12:20:49.730Z,1015.92
2022-08-02T12:21:52.493Z,1015.95
2022-08-02T12:22:55.761Z,1015.92
2022-08-02T12:24:52.302Z,1015.86
2022-08-02T12:25:59.041Z,1015.86
2022-08-02T12:27:08.001Z,1015.83
2022-08-02T12:28:47.265Z,1015.77
2022-08-02T12:30:10.092Z,1015.76
2022-08-02T12:31:19.449Z,1015.74
2022-08-02T12:33:18.998Z,1015.75
2022-08-02T12:34:37.347Z,1015.75
2022-08-02T12:35:40.106Z,1015.78
2022-08-02T12:37:15.757Z,1015.69
2022-08-02T12:38:18.715Z,1015.72
2022-08-02T12:39:21.560Z,1015.65
2022-08-02T12:41:01.016Z,1015.62
2022-08-02T12:42:46.975Z,1015.56
2022-08-02T12:43:51.337Z,1015.56
2022-08-02T12:45:25.880Z,1015.56
2022-08-02T12:46:51.172Z,1015.60
2022-08-02T12:47:57.186Z,1015.64
2022-08-02T12:50:07.320Z,1015.67
2022-08-02T12:51:10.835Z,1015.66
2022-08-02T12:52:42.902Z,1015.66
2022-08-02T12:54:31.580Z,1015.72
2022-08-02T12:56:08.751Z,1015.66
2022-08-02T12:57:11.383Z,1015.62
2022-08-02T12:58:46.121Z,1015.63
2022-08-02T12:59:50.552Z,1015.61
2022-08-02T13:00:23.215Z,1015.61
2022-08-02T13:01:26.205Z,1015.65
2022-08-02T13:02:30.499Z,1015.64
2022-08-02T13:05:11.008Z,1015.64
2022-08-02T13:06:51.424Z,1015.59
2022-08-02T13:07:54.619Z,1015.57
2022-08-02T13:09:35.054Z,1015.61
2022-08-02T13:10:49.724Z,1015.62
2022-08-02T13:11:55.065Z,1015.62
2022-08-02T13:13:30.111Z,1015.62
2022-08-02T13:14:40.479Z,1015.64
2022-08-02T13:16:04.454Z,1015.63
2022-08-02T13:17:49.092Z,1015.64
2022-08-02T13:18:51.915Z,1015.62
2022-08-02T13:19:58.893Z,1015.64
2022-08-02T13:22:15.496Z,1015.64
2022-08-02T13:24:00.725Z,1015.60
2022-08-02T13:25:48.455Z,1015.60
2022-08-02T13:27:28.820Z,1015.62
2022-08-02T13:28:31.585Z,1015.59
2022-08-02T13:29:34.431Z,1015.63
2022-08-02T13:31:42.445Z,1015.52
2022-08-02T13:32:45.253Z,1015.56
2022-08-02T13:33:52.717Z,1015.50
2022-08-02T13:35:29.582Z,1015.51
2022-08-02T13:36:32.305Z,1015.44
2022-08-02T13:37:40.230Z,1015.39
2022-08-02T13:39:21.964Z,1015.41
2022-08-02T13:41:08.027Z,1015.40
2022-08-02T13:42:22.545Z,1015.38
2022-08-02T13:44:16.227Z,1015.32
2022-08-02T13:45:24.742Z,1015.31
2022-08-02T13:46:45.307Z,1015.33
2022-08-02T13:49:04.155Z,1015.33
2022-08-02T13:50:39.983Z,1015.28
2022-08-02T13:51:48.515Z,1015.30
2022-08-02T13:53:23.175Z,1015.25
2022-08-02T13:54:25.977Z,1015.19
2022-08-02T13:55:28.843Z,1015.14
2022-08-02T13:57:27.765Z,1015.16
2022-08-02T13:58:39.805Z,1015.16
2022-08-02T14:00:40.149Z,1015.15
2022-08-02T14:01:43.467Z,1015.16
2022-08-02T14:02:51.719Z,1015.14
2022-08-02T14:05:06.345Z,1015.10
2022-08-02T14:06:34.749Z,1015.18
2022-08-02T14:07:37.684Z,1015.03
2022-08-02T14:09:21.206Z,1015.15
2022-08-02T14:10:26.489Z,1015.12
2022-08-02T14:11:33.309Z,1015.12
2022-08-02T14:13:09.060Z,1015.08
2022-08-02T14:14:21.074Z,1015.10
2022-08-02T14:15:23.813Z,1015.08
2022-08-02T14:17:07.439Z,1015.07
2022-08-02T14:18:10.456Z,1015.05
2022-08-02T14:19:22.772Z,1015.04
2022-08-02T14:21:06.101Z,1015.03
2022-08-02T14:22:24.084Z,1015.02
2022-08-02T14:23:56.662Z,1015.10
2022-08-02T14:25:31.465Z,1015.06
2022-08-02T14:26:39.179Z,1015.07
2022-08-02T14:27:50.717Z,1015.03
2022-08-02T14:29:25.250Z,1015.05
2022-08-02T14:30:28.333Z,1015.04
2022-08-02T14:31:31.112Z,1015.04
2022-08-02T14:33:21.875Z,1015.04
2022-08-02T14:34:24.952Z,1014.98
2022-08-02T14:35:27.789Z,1015.05
2022-08-02T14:37:13.960Z,1015.00
2022-08-02T14:38:18.048Z,1014.96
2022-08-02T14:39:23.021Z,1014.99
2022-08-02T14:42:12.318Z,1014.96
2022-08-02T14:43:19.440Z,1014.90
2022-08-02T14:44:23.158Z,1014.98
2022-08-02T14:45:57.767Z,1014.87
2022-08-02T14:47:03.327Z,1014.88
2022-08-02T14:48:06.334Z,1014.89
2022-08-02T14:49:50.277Z,1014.87
2022-08-02T14:50:53.739Z,1014.84
2022-08-02T14:51:56.523Z,1014.87
2022-08-02T14:53:49.643Z,1014.88
2022-08-02T14:55:22.653Z,1014.76
2022-08-02T14:56:25.207Z,1014.70
2022-08-02T14:57:59.664Z,1014.65
2022-08-02T14:59:02.322Z,1014.63
2022-08-02T15:00:23.233Z,1014.65
2022-08-02T15:01:37.599Z,1014.69
2022-08-02T15:02:40.998Z,1014.68
2022-08-02T15:04:15.988Z,1014.64
2022-08-02T15:05:29.107Z,1014.65
2022-08-02T15:06:35.181Z,1014.63
2022-08-02T15:08:10.123Z,1014.65
2022-08-02T15:09:14.694Z,1014.65
2022-08-02T15:10:18.904Z,1014.64
2022-08-02T15:12:07.849Z,1014.65
2022-08-02T15:13:13.020Z,1014.71
2022-08-02T15:14:18.465Z,1014.69
2022-08-02T15:15:56.876Z,1014.65
2022-08-02T15:17:08.542Z,1014.67
2022-08-02T15:18:11.743Z,1014.68
2022-08-02T15:20:32.105Z,1014.62
2022-08-02T15:22:32.133Z,1014.59
2022-08-02T15:23:49.923Z,1014.59
2022-08-02T15:25:26.207Z,1014.64
2022-08-02T15:26:35.255Z,1014.59
2022-08-02T15:27:38.089Z,1014.55
2022-08-02T15:29:14.142Z,1014.49
2022-08-02T15:30:16.841Z,1014.51
2022-08-02T15:31:41.712Z,1014.53
2022-08-02T15:33:16.524Z,1014.50
2022-08-02T15:34:24.240Z,1014.52
2022-08-02T15:35:27.234Z,1014.49
2022-08-02T15:37:02.023Z,1014.48
2022-08-02T15:38:04.892Z,1014.49
2022-08-02T15:39:07.716Z,1014.50
2022-08-02T15:40:42.407Z,1014.45
2022-08-02T15:41:45.264Z,1014.51
2022-08-02T15:42:47.924Z,1014.49
2022-08-02T15:44:47.322Z,1014.47
2022-08-02T15:45:50.074Z,1014.42
2022-08-02T15:46:52.867Z,1014.41
2022-08-02T15:48:34.419Z,1014.40
2022-08-02T15:49:41.369Z,1014.43
2022-08-02T15:50:44.835Z,1014.39
2022-08-02T15:52:20.047Z,1014.42
2022-08-02T15:53:26.730Z,1014.45
2022-08-02T15:54:29.751Z,1014.50
2022-08-02T15:56:21.966Z,1014.47
2022-08-02T15:57:27.052Z,1014.47
2022-08-02T15:58:34.797Z,1014.42
2022-08-02T16:00:29.849Z,1014.38
2022-08-02T16:01:47.618Z,1014.40
2022-08-02T16:02:53.233Z,1014.41
2022-08-02T16:04:28.237Z,1014.42
2022-08-02T16:05:53.195Z,1014.44